Tessalit, Mali
Current Conditions -  °F | °C
As of 6:00 AM on Friday 19 Dec 2014 (Local Time) from DAAT Reporting Station
Clear Clear  
Wind Chill: 42°   Ceiling: Unl
Heat Index: 48°   Visibility: 6mi
Dew Point:   Wind: 16mph
Humidity: 20%   Direction: 80°E
Pressure: 30.09"   Gusts: NA
Location:  20.28°N, 0.98°E
Report Text: DAAT 190600Z 08014KT CAVOK 09/M13 Q1019
Loading
Personal Weather Stations






























Interactive Weather Map New forecast layout! Learn more

10-Day Weather Forecast

Advertisements
Track Severe Weather on mobile